Time;durP1;ratioP1;P1;durP2;ratioP2;P2;SDS_P1;SDS_P2;PMS_P1;PMS_P2;Temp;Humidity;BMP_temperature;BMP_pressure;BME280_temperature;BME280_humidity;BME280_pressure;Samples;Min_cycle;Max_cycle;Signal;HPM_P1;HPM_P2
2022/01/01 00:02:12;;;;;;;54.92;23.30;;;10.40;99.90;;;;;;5093251;27;20055;-81
2022/01/01 00:04:38;;;;;;;49.72;21.63;;;10.30;99.90;;;;;;5113809;27;20528;-82
2022/01/01 00:07:03;;;;;;;53.40;22.52;;;10.40;99.90;;;;;;5113736;27;20035;-85
2022/01/01 00:09:29;;;;;;;58.15;27.48;;;10.40;99.90;;;;;;5097847;27;20421;-82
2022/01/01 00:11:54;;;;;;;60.60;27.45;;;10.40;99.90;;;;;;5096843;27;20125;-83
2022/01/01 00:14:20;;;;;;;62.75;28.13;;;10.40;99.90;;;;;;5119334;27;20100;-87
2022/01/01 00:16:45;;;;;;;66.22;30.85;;;10.40;99.90;;;;;;5125429;27;20440;-80
2022/01/01 00:19:11;;;;;;;73.63;34.08;;;10.40;99.90;;;;;;5101158;27;20044;-87
2022/01/01 00:21:37;;;;;;;74.07;38.03;;;10.40;99.90;;;;;;5087105;27;20039;-77
2022/01/01 00:24:03;;;;;;;80.18;38.42;;;10.40;99.90;;;;;;5093691;28;20071;-87
2022/01/01 00:26:28;;;;;;;79.75;40.53;;;10.40;99.90;;;;;;5099355;28;20040;-86
2022/01/01 00:28:54;;;;;;;85.95;43.80;;;10.40;99.90;;;;;;5096701;28;20082;-86
2022/01/01 00:31:19;;;;;;;88.38;42.83;;;10.40;99.90;;;;;;5103668;28;20043;-84
2022/01/01 00:33:45;;;;;;;80.20;42.33;;;10.40;99.90;;;;;;5098915;28;20480;-82
2022/01/01 00:36:11;;;;;;;88.22;43.60;;;10.50;99.90;;;;;;5108259;28;20509;-81
2022/01/01 00:38:36;;;;;;;81.60;37.30;;;10.40;99.90;;;;;;5093084;28;21969;-81
2022/01/01 00:41:02;;;;;;;79.03;36.33;;;10.40;99.90;;;;;;5100838;28;20048;-82
2022/01/01 00:43:28;;;;;;;75.95;33.42;;;11.10;99.90;;;;;;5079988;28;20036;-84
2022/01/01 00:45:53;;;;;;;73.25;32.25;;;10.40;99.90;;;;;;5109991;27;20048;-82
2022/01/01 00:48:19;;;;;;;77.40;32.53;;;10.40;99.90;;;;;;5094101;28;20151;-81
2022/01/01 00:50:45;;;;;;;70.10;32.08;;;11.70;99.90;;;;;;5119472;27;20105;-81
2022/01/01 00:53:10;;;;;;;61.88;27.55;;;10.40;99.90;;;;;;5112834;27;20055;-82
2022/01/01 00:55:36;;;;;;;41.90;20.58;;;10.60;99.90;;;;;;5114570;27;20043;-86
2022/01/01 00:58:02;;;;;;;64.53;27.30;;;11.70;99.90;;;;;;5093742;28;20051;-82
2022/01/01 01:00:27;;;;;;;87.13;45.78;;;10.40;99.90;;;;;;5094394;28;20063;-83
2022/01/01 01:02:53;;;;;;;63.03;29.02;;;10.40;99.90;;;;;;5114646;27;20043;-83
2022/01/01 01:05:19;;;;;;;81.63;39.00;;;10.30;99.90;;;;;;5117592;27;20043;-80
2022/01/01 01:07:44;;;;;;;56.78;23.98;;;11.00;99.90;;;;;;5095119;27;20043;-84
2022/01/01 01:10:12;;;;;;;57.00;23.25;;;10.20;99.90;;;;;;5110188;27;20096;-84
2022/01/01 01:12:42;;;;;;;57.65;21.98;;;10.20;99.90;;;;;;5115345;27;20071;-85
2022/01/01 01:15:16;;;;;;;56.22;23.65;;;11.60;99.90;;;;;;5108911;27;20376;-79
2022/01/01 01:17:42;;;;;;;67.43;25.13;;;10.20;99.90;;;;;;5102503;28;20097;-82
2022/01/01 01:20:08;;;;;;;62.95;24.63;;;11.10;99.90;;;;;;5104098;27;20040;-81
2022/01/01 01:22:34;;;;;;;58.33;23.20;;;10.10;99.90;;;;;;5094942;28;20046;-81
2022/01/01 01:25:00;;;;;;;63.97;22.73;;;10.10;99.90;;;;;;5090600;28;20044;-79
2022/01/01 01:27:28;;;;;;;60.60;22.95;;;10.10;99.90;;;;;;5102434;28;20063;-79
2022/01/01 01:29:54;;;;;;;62.25;20.70;;;10.10;99.90;;;;;;5100386;28;20050;-87
2022/01/01 01:32:20;;;;;;;63.00;24.50;;;10.00;99.90;;;;;;5101225;28;20062;-79
2022/01/01 01:34:45;;;;;;;63.85;24.83;;;10.10;99.90;;;;;;5091202;28;20040;-86
2022/01/01 01:37:11;;;;;;;75.13;25.08;;;10.00;99.90;;;;;;5103242;28;20046;-90
2022/01/01 01:39:36;;;;;;;70.95;26.17;;;11.80;99.90;;;;;;5095673;28;20377;-89
2022/01/01 01:42:02;;;;;;;63.55;27.67;;;10.00;99.90;;;;;;5101051;28;20044;-82
2022/01/01 01:44:32;;;;;;;68.38;28.25;;;10.00;99.90;;;;;;5076263;28;20043;-83
2022/01/01 01:47:00;;;;;;;70.22;28.00;;;10.10;99.90;;;;;;5100736;28;20553;-82
2022/01/01 01:49:26;;;;;;;89.35;34.55;;;10.20;99.90;;;;;;5099952;28;20154;-82
2022/01/01 01:51:53;;;;;;;91.65;33.80;;;10.10;99.90;;;;;;5082875;28;20127;-82
2022/01/01 01:54:19;;;;;;;84.65;34.72;;;10.10;99.90;;;;;;5103632;28;20059;-90
2022/01/01 01:56:45;;;;;;;85.07;35.25;;;10.20;99.90;;;;;;5103843;28;20040;-79
2022/01/01 01:59:12;;;;;;;83.22;35.58;;;10.10;99.90;;;;;;5093431;28;20055;-81
2022/01/01 02:01:38;;;;;;;91.93;38.88;;;10.10;99.90;;;;;;5103501;28;20150;-84
2022/01/01 02:04:04;;;;;;;98.07;42.05;;;10.10;99.90;;;;;;5098474;28;20123;-79
2022/01/01 02:06:29;;;;;;;90.78;41.00;;;10.20;99.90;;;;;;5084975;28;20149;-77
2022/01/01 02:08:55;;;;;;;89.88;39.50;;;10.10;99.90;;;;;;5086715;28;20044;-79
2022/01/01 02:11:22;;;;;;;79.85;38.97;;;10.10;99.90;;;;;;5104887;28;20028;-86
2022/01/01 02:14:16;;;;;;;82.88;42.53;;;10.10;99.90;;;;;;5093797;28;20407;-79
2022/01/01 02:19:24;;;;;;;87.43;38.80;;;10.10;99.90;;;;;;5104378;28;21024;-78
2022/01/01 02:21:52;;;;;;;93.47;39.17;;;10.10;99.90;;;;;;5089108;28;20061;-77
2022/01/01 02:24:18;;;;;;;90.63;37.22;;;10.10;99.90;;;;;;5121021;27;20059;-81
2022/01/01 02:26:44;;;;;;;87.32;36.63;;;10.20;99.90;;;;;;5096580;27;20046;-79
2022/01/01 02:29:10;;;;;;;89.28;37.00;;;10.10;99.90;;;;;;5126055;27;20078;-82
2022/01/01 02:31:36;;;;;;;77.25;32.55;;;10.10;99.90;;;;;;5132464;27;20366;-84
2022/01/01 02:34:07;;;;;;;76.60;29.65;;;10.20;99.90;;;;;;5126774;27;20045;-77
2022/01/01 02:36:43;;;;;;;64.90;28.25;;;10.20;99.90;;;;;;5113618;27;20531;-84
2022/01/01 02:39:20;;;;;;;72.97;30.08;;;10.20;99.90;;;;;;5107439;27;20070;-78
2022/01/01 02:41:48;;;;;;;77.07;29.70;;;10.20;99.90;;;;;;5130605;27;20050;-80
2022/01/01 02:44:14;;;;;;;75.18;31.38;;;10.10;99.90;;;;;;5113567;27;20436;-82
2022/01/01 02:46:40;;;;;;;75.35;29.35;;;10.30;99.90;;;;;;5114394;27;20035;-80
2022/01/01 02:49:06;;;;;;;71.03;30.80;;;10.10;99.90;;;;;;5112638;27;20379;-82
2022/01/01 02:51:33;;;;;;;81.38;31.55;;;10.10;99.90;;;;;;5110027;27;20043;-83
2022/01/01 02:53:59;;;;;;;76.72;32.58;;;11.30;99.90;;;;;;5096664;27;20490;-85
2022/01/01 02:56:25;;;;;;;72.60;31.30;;;10.20;99.90;;;;;;5093226;27;20039;-78
2022/01/01 02:58:51;;;;;;;86.97;37.30;;;11.50;99.90;;;;;;5132032;27;20035;-78
2022/01/01 03:01:18;;;;;;;92.43;37.35;;;10.20;99.90;;;;;;5104773;27;20055;-78
2022/01/01 03:03:46;;;;;;;84.55;38.72;;;10.10;99.90;;;;;;5089861;27;20448;-80
2022/01/01 03:06:19;;;;;;;86.20;38.40;;;10.10;99.90;;;;;;5108665;27;20044;-78
2022/01/01 03:08:46;;;;;;;88.70;40.13;;;10.10;99.90;;;;;;5094861;27;20039;-82
2022/01/01 03:11:11;;;;;;;96.43;41.13;;;11.50;99.90;;;;;;5096756;27;20043;-78
2022/01/01 03:13:37;;;;;;;92.75;40.75;;;10.00;99.90;;;;;;5109353;28;20487;-78
2022/01/01 03:16:03;;;;;;;81.03;39.75;;;10.10;99.90;;;;;;5107069;28;20128;-82
2022/01/01 03:18:29;;;;;;;90.03;38.38;;;10.20;99.90;;;;;;5110851;27;20047;-82
2022/01/01 03:20:54;;;;;;;96.55;38.53;;;10.10;99.90;;;;;;5112473;28;20043;-79
2022/01/01 03:23:20;;;;;;;84.25;35.03;;;9.20;99.90;;;;;;5091591;28;20550;-80
2022/01/01 03:25:46;;;;;;;85.45;35.90;;;10.20;99.90;;;;;;5126853;28;20149;-80
2022/01/01 03:28:11;;;;;;;80.57;31.88;;;9.80;99.90;;;;;;5090984;28;20095;-78
2022/01/01 03:30:37;;;;;;;71.13;30.02;;;10.20;99.90;;;;;;5109324;28;20088;-81
2022/01/01 03:33:03;;;;;;;78.53;31.55;;;10.20;99.90;;;;;;5092769;28;20583;-84
2022/01/01 03:35:28;;;;;;;74.88;31.98;;;10.20;99.90;;;;;;5090627;28;20047;-80
2022/01/01 03:37:54;;;;;;;73.93;29.88;;;9.80;99.90;;;;;;5094310;28;20050;-78
2022/01/01 03:40:20;;;;;;;74.60;30.83;;;10.20;99.90;;;;;;5095957;28;20035;-81
2022/01/01 03:42:45;;;;;;;73.57;30.90;;;10.20;99.90;;;;;;5107782;28;20122;-81
2022/01/01 03:45:11;;;;;;;71.03;29.70;;;9.90;99.90;;;;;;5089268;28;20035;-81
2022/01/01 03:47:37;;;;;;;85.45;31.55;;;10.20;99.90;;;;;;5096231;28;20502;-80
2022/01/01 03:50:03;;;;;;;81.18;30.13;;;10.20;99.90;;;;;;5096309;28;20467;-78
2022/01/01 03:52:28;;;;;;;69.13;29.88;;;10.30;99.90;;;;;;5087730;28;20043;-80
2022/01/01 03:54:54;;;;;;;75.57;31.65;;;10.30;99.90;;;;;;5090064;28;20498;-78
2022/01/01 03:57:22;;;;;;;68.55;32.05;;;10.20;99.90;;;;;;5113040;28;20043;-78
2022/01/01 03:59:48;;;;;;;67.75;30.92;;;11.10;99.90;;;;;;5092459;28;20097;-80
2022/01/01 04:02:14;;;;;;;63.97;26.67;;;10.30;99.90;;;;;;5130631;28;20490;-89
2022/01/01 04:04:40;;;;;;;69.30;27.10;;;10.20;99.90;;;;;;5112737;28;20478;-82
2022/01/01 04:07:08;;;;;;;65.07;28.83;;;10.20;99.90;;;;;;5096236;28;20110;-83
2022/01/01 04:09:33;;;;;;;70.20;30.35;;;10.30;99.90;;;;;;5112485;28;20397;-80
2022/01/01 04:11:59;;;;;;;69.57;30.20;;;10.20;99.90;;;;;;5095281;28;20031;-81
2022/01/01 04:14:24;;;;;;;73.70;30.98;;;10.20;99.90;;;;;;5096234;28;20132;-78
2022/01/01 04:16:52;;;;;;;75.10;29.10;;;10.20;99.90;;;;;;5113156;28;20044;-78
2022/01/01 04:19:17;;;;;;;69.50;32.38;;;10.20;99.90;;;;;;5112315;28;20043;-79
2022/01/01 04:21:43;;;;;;;75.32;30.95;;;10.40;99.90;;;;;;5096441;28;20088;-81
2022/01/01 04:24:09;;;;;;;67.20;29.08;;;10.20;99.90;;;;;;5095924;28;20514;-76
2022/01/01 04:26:34;;;;;;;75.65;30.48;;;10.20;99.90;;;;;;5117772;28;20437;-81
2022/01/01 04:29:00;;;;;;;71.93;29.85;;;10.20;99.90;;;;;;5097555;28;20041;-81
2022/01/01 04:31:26;;;;;;;72.80;33.10;;;10.20;99.90;;;;;;5098072;27;20057;-81
2022/01/01 04:33:52;;;;;;;80.70;33.97;;;10.20;99.90;;;;;;5115822;27;20107;-81
2022/01/01 04:36:18;;;;;;;84.18;36.22;;;10.20;99.90;;;;;;5125147;27;20066;-79
2022/01/01 04:38:45;;;;;;;79.13;35.00;;;10.10;99.90;;;;;;5121387;27;20443;-81
2022/01/01 04:41:16;;;;;;;80.50;35.85;;;10.20;99.90;;;;;;5100070;27;20088;-78
2022/01/01 04:43:46;;;;;;;81.15;35.75;;;11.10;99.90;;;;;;5119514;27;20050;-80
2022/01/01 04:46:12;;;;;;;73.38;37.80;;;10.10;99.90;;;;;;5121744;27;20039;-79
2022/01/01 04:48:37;;;;;;;75.93;37.83;;;11.30;99.90;;;;;;5115542;27;20053;-79
2022/01/01 04:51:07;;;;;;;81.00;38.53;;;11.40;99.90;;;;;;5120118;27;20027;-81
2022/01/01 04:53:34;;;;;;;92.00;43.55;;;10.10;99.90;;;;;;5098738;27;20066;-78
2022/01/01 04:56:05;;;;;;;84.85;46.80;;;9.60;99.90;;;;;;5123190;27;20486;-82
2022/01/01 04:58:30;;;;;;;89.85;48.75;;;10.10;99.90;;;;;;5102206;27;20423;-83
2022/01/01 05:00:56;;;;;;;96.03;51.70;;;10.10;99.90;;;;;;5101098;27;20031;-83
2022/01/01 05:03:21;;;;;;;94.93;53.47;;;10.10;99.90;;;;;;5104609;27;20051;-85
2022/01/01 05:05:49;;;;;;;91.07;52.40;;;10.30;99.90;;;;;;5121957;27;20462;-85
2022/01/01 05:08:15;;;;;;;107.20;57.42;;;10.10;99.90;;;;;;5127396;27;20478;-81
2022/01/01 05:10:41;;;;;;;111.03;60.08;;;10.20;99.90;;;;;;5117765;27;20047;-78
2022/01/01 05:13:06;;;;;;;110.20;58.20;;;10.20;99.90;;;;;;5103340;27;20042;-83
2022/01/01 05:15:32;;;;;;;112.63;62.88;;;11.20;99.90;;;;;;5101438;27;20076;-87
2022/01/01 05:17:58;;;;;;;117.70;62.70;;;10.20;99.90;;;;;;5134406;27;20043;-79
2022/01/01 05:20:23;;;;;;;114.43;60.67;;;10.00;99.90;;;;;;5126752;27;20039;-79
2022/01/01 05:22:49;;;;;;;112.47;59.83;;;10.10;99.90;;;;;;5121292;27;20051;-78
2022/01/01 05:25:15;;;;;;;115.70;60.53;;;10.50;99.90;;;;;;5100857;27;20031;-82
2022/01/01 05:27:40;;;;;;;109.97;54.85;;;10.30;99.90;;;;;;5099963;27;20031;-80
2022/01/01 05:30:08;;;;;;;85.15;48.22;;;10.20;99.90;;;;;;5117043;27;20069;-78
2022/01/01 05:32:34;;;;;;;89.60;44.25;;;9.30;99.90;;;;;;5103068;27;20043;-80
2022/01/01 05:34:59;;;;;;;90.95;45.67;;;11.70;99.90;;;;;;5117266;27;20054;-79
2022/01/01 05:37:25;;;;;;;98.10;46.55;;;10.30;99.90;;;;;;5091788;27;20100;-80
2022/01/01 05:39:51;;;;;;;81.38;40.90;;;11.60;99.90;;;;;;5093241;27;20043;-83
2022/01/01 05:42:16;;;;;;;84.68;41.10;;;9.60;99.90;;;;;;5114809;27;20042;-80
2022/01/01 05:44:42;;;;;;;78.68;36.17;;;10.70;99.90;;;;;;5125776;27;20100;-86
2022/01/01 05:47:08;;;;;;;91.18;38.13;;;10.20;99.90;;;;;;5120581;27;20046;-82
2022/01/01 05:49:33;;;;;;;77.75;37.30;;;10.30;99.90;;;;;;5118339;27;20395;-84
2022/01/01 05:51:59;;;;;;;77.93;36.38;;;10.30;99.90;;;;;;5119967;27;20054;-79
2022/01/01 05:54:24;;;;;;;77.38;30.58;;;10.20;99.90;;;;;;5114915;27;20043;-82
2022/01/01 05:56:50;;;;;;;78.10;30.10;;;10.20;99.90;;;;;;5114732;27;20114;-83
2022/01/01 05:59:16;;;;;;;64.63;25.73;;;11.70;99.90;;;;;;5096913;27;20031;-83
2022/01/01 06:01:41;;;;;;;76.40;27.85;;;11.80;99.90;;;;;;5100044;27;20039;-78
2022/01/01 06:04:07;;;;;;;71.53;25.58;;;10.10;99.90;;;;;;5096470;27;20123;-84
2022/01/01 06:06:32;;;;;;;69.45;26.00;;;10.10;99.90;;;;;;5097044;27;20058;-84
2022/01/01 06:08:59;;;;;;;57.83;24.92;;;10.20;99.90;;;;;;5097257;27;20039;-83
2022/01/01 06:11:24;;;;;;;78.38;28.33;;;10.20;99.90;;;;;;5096495;27;20038;-82
2022/01/01 06:13:50;;;;;;;65.30;22.70;;;10.20;99.90;;;;;;5097336;27;20039;-82
2022/01/01 06:16:15;;;;;;;69.85;26.15;;;12.00;99.90;;;;;;5098745;27;20417;-84
2022/01/01 06:18:41;;;;;;;83.22;27.80;;;9.90;99.90;;;;;;5114231;27;20482;-78
2022/01/01 06:21:07;;;;;;;68.40;24.92;;;10.30;99.90;;;;;;5096805;27;20063;-88
2022/01/01 06:23:36;;;;;;;68.72;23.95;;;11.40;99.90;;;;;;5097824;27;20091;-82
2022/01/01 06:26:03;;;;;;;76.03;24.48;;;10.30;99.90;;;;;;5132046;27;20409;-77
2022/01/01 06:28:28;;;;;;;68.88;24.65;;;11.00;99.90;;;;;;5132671;27;20031;-88
2022/01/01 06:30:54;;;;;;;65.93;24.02;;;10.30;99.90;;;;;;5113793;27;20038;-78
2022/01/01 06:33:21;;;;;;;73.20;25.15;;;10.30;99.90;;;;;;5121908;27;20043;-78
2022/01/01 06:35:47;;;;;;;62.55;23.33;;;10.40;99.90;;;;;;5102963;27;20035;-78
2022/01/01 06:38:13;;;;;;;66.90;21.75;;;11.90;99.90;;;;;;5123810;27;20105;-78
2022/01/01 06:40:41;;;;;;;57.53;21.83;;;10.20;99.90;;;;;;5114464;27;20508;-78
2022/01/01 06:43:08;;;;;;;65.72;22.70;;;10.40;99.90;;;;;;5113707;27;20091;-87
2022/01/01 06:45:35;;;;;;;61.17;23.20;;;10.40;99.90;;;;;;5114859;27;20050;-81
2022/01/01 06:48:01;;;;;;;63.75;22.90;;;10.40;99.90;;;;;;5115471;27;20091;-84
2022/01/01 06:50:27;;;;;;;50.80;20.20;;;10.40;99.90;;;;;;4406334;27;10000755;-77
2022/01/01 06:52:53;;;;;;;67.90;24.63;;;10.50;99.90;;;;;;5106610;27;20039;-79
2022/01/01 06:55:19;;;;;;;64.25;23.98;;;11.70;99.90;;;;;;5094591;28;20047;-80
2022/01/01 06:57:46;;;;;;;56.38;21.83;;;11.90;99.90;;;;;;5095480;27;20043;-76
2022/01/01 07:00:14;;;;;;;59.03;21.45;;;11.90;99.90;;;;;;5115582;27;20560;-78
2022/01/01 07:02:44;;;;;;;65.80;24.02;;;10.50;99.90;;;;;;5093896;27;20494;-80
2022/01/01 07:05:10;;;;;;;79.55;27.02;;;10.50;99.90;;;;;;5094999;27;20088;-85
2022/01/01 07:07:36;;;;;;;67.85;21.98;;;10.50;99.90;;;;;;5086197;27;20044;-77
2022/01/01 07:10:05;;;;;;;75.15;24.60;;;11.70;99.90;;;;;;5095428;27;20047;-77
2022/01/01 07:12:30;;;;;;;61.22;23.67;;;10.50;99.90;;;;;;5094517;27;20042;-76
2022/01/01 07:14:56;;;;;;;58.90;21.83;;;10.50;99.90;;;;;;5093724;27;20043;-76
2022/01/01 07:17:22;;;;;;;57.28;21.27;;;11.70;99.90;;;;;;5094841;27;20137;-75
2022/01/01 07:19:47;;;;;;;77.43;23.45;;;10.40;99.90;;;;;;5094665;28;20035;-76
2022/01/01 07:22:13;;;;;;;54.30;20.30;;;10.10;99.90;;;;;;5093753;28;20051;-76
2022/01/01 07:24:39;;;;;;;63.75;21.88;;;11.70;99.90;;;;;;5088667;28;20483;-80
2022/01/01 07:27:05;;;;;;;53.67;21.50;;;11.80;99.90;;;;;;5090479;28;20043;-78
2022/01/01 07:29:31;;;;;;;59.08;22.50;;;10.30;99.90;;;;;;5090145;28;20050;-80
2022/01/01 07:31:56;;;;;;;56.25;24.23;;;11.50;99.90;;;;;;5090293;28;20042;-81
2022/01/01 07:34:22;;;;;;;56.22;21.40;;;10.50;99.90;;;;;;5091254;28;20117;-83
2022/01/01 07:36:49;;;;;;;53.80;21.90;;;10.50;99.90;;;;;;5107749;28;20114;-78
2022/01/01 07:39:15;;;;;;;58.30;22.08;;;10.50;99.90;;;;;;5091317;28;20463;-78
2022/01/01 07:41:42;;;;;;;50.30;21.77;;;10.50;99.90;;;;;;5091747;28;20071;-77
2022/01/01 07:44:09;;;;;;;57.58;22.92;;;10.30;99.90;;;;;;5090900;28;20052;-77
2022/01/01 07:46:34;;;;;;;61.03;23.45;;;11.90;99.90;;;;;;5091594;28;20040;-82
2022/01/01 07:49:00;;;;;;;60.47;23.23;;;10.60;99.90;;;;;;5090278;28;20039;-82
2022/01/01 07:51:26;;;;;;;60.75;24.98;;;11.90;99.90;;;;;;5096517;28;20483;-83
2022/01/01 07:53:52;;;;;;;66.53;25.45;;;10.60;99.90;;;;;;5085230;28;20035;-84
2022/01/01 07:56:17;;;;;;;73.18;26.33;;;10.60;99.90;;;;;;5108829;28;20075;-77
2022/01/01 07:58:43;;;;;;;67.53;25.75;;;10.30;99.90;;;;;;5090576;28;20103;-81
2022/01/01 08:01:08;;;;;;;65.47;25.42;;;10.70;99.90;;;;;;5107618;28;20093;-82
2022/01/01 08:03:34;;;;;;;61.15;23.92;;;10.70;99.90;;;;;;5107921;28;20043;-78
2022/01/01 08:05:59;;;;;;;59.60;24.63;;;10.30;99.90;;;;;;5091300;28;20414;-78
2022/01/01 08:08:25;;;;;;;59.25;25.00;;;10.70;99.90;;;;;;5094881;28;20094;-80
2022/01/01 08:10:51;;;;;;;64.75;25.90;;;11.50;99.90;;;;;;5110005;28;20123;-83
2022/01/01 08:13:23;;;;;;;70.22;27.65;;;10.70;99.90;;;;;;5111543;28;20800;-79
2022/01/01 08:15:49;;;;;;;55.85;25.33;;;10.60;99.90;;;;;;5094760;28;20088;-78
2022/01/01 08:18:15;;;;;;;66.30;25.90;;;10.80;99.90;;;;;;5091281;28;20139;-80
2022/01/01 08:20:41;;;;;;;63.67;27.05;;;10.80;99.90;;;;;;5105392;28;20126;-78
2022/01/01 08:23:07;;;;;;;63.85;25.33;;;11.80;99.90;;;;;;5087445;28;20040;-82
2022/01/01 08:25:33;;;;;;;56.42;26.58;;;12.40;99.90;;;;;;5093093;27;20039;-83
2022/01/01 08:27:59;;;;;;;61.78;26.42;;;10.90;99.90;;;;;;5091906;28;20035;-78
2022/01/01 08:30:25;;;;;;;66.72;27.45;;;10.90;99.90;;;;;;5094481;28;20047;-79
2022/01/01 08:32:50;;;;;;;58.83;27.42;;;10.90;99.90;;;;;;5093751;28;20043;-85
2022/01/01 08:35:16;;;;;;;71.82;29.38;;;11.80;99.90;;;;;;5092952;28;20542;-81
2022/01/01 08:37:42;;;;;;;80.93;29.13;;;10.90;99.90;;;;;;5094793;28;20089;-83
2022/01/01 08:40:08;;;;;;;68.53;29.63;;;10.90;99.90;;;;;;5092792;28;20122;-83
2022/01/01 08:42:34;;;;;;;58.00;28.52;;;11.00;99.90;;;;;;5109922;27;20418;-77
2022/01/01 08:45:00;;;;;;;67.07;28.05;;;10.90;99.90;;;;;;5076769;28;20085;-88
2022/01/01 08:47:26;;;;;;;62.70;27.27;;;10.60;99.90;;;;;;5110417;27;20051;-77
2022/01/01 08:49:55;;;;;;;69.88;29.75;;;11.00;99.90;;;;;;5110728;28;20039;-77
2022/01/01 08:52:25;;;;;;;56.13;26.63;;;11.10;99.90;;;;;;5110784;28;20039;-78
2022/01/01 08:54:55;;;;;;;61.70;27.08;;;11.10;99.90;;;;;;5098148;28;20052;-85
2022/01/01 08:57:21;;;;;;;46.65;24.58;;;11.20;99.90;;;;;;5094002;28;20043;-77
2022/01/01 08:59:47;;;;;;;49.30;25.40;;;12.70;99.90;;;;;;5094080;28;20040;-82
2022/01/01 09:02:12;;;;;;;56.78;25.08;;;10.80;99.90;;;;;;5091268;28;20038;-80
2022/01/01 09:04:38;;;;;;;55.25;29.88;;;11.20;99.90;;;;;;5113197;27;20055;-76
2022/01/01 09:07:04;;;;;;;53.83;24.90;;;12.10;99.90;;;;;;5109310;28;20387;-80
2022/01/01 09:09:30;;;;;;;49.95;24.70;;;11.00;99.90;;;;;;5116341;27;20063;-77
2022/01/01 09:11:56;;;;;;;48.78;25.67;;;11.30;99.90;;;;;;5092931;28;20032;-81
2022/01/01 09:14:22;;;;;;;47.42;23.60;;;12.30;99.90;;;;;;5116681;27;20657;-80
2022/01/01 09:16:47;;;;;;;51.08;24.80;;;12.20;99.90;;;;;;5093368;28;20103;-85
2022/01/01 09:19:13;;;;;;;99.07;62.17;;;11.20;99.90;;;;;;5091980;28;20036;-77
2022/01/01 09:21:39;;;;;;;62.88;32.67;;;11.00;99.90;;;;;;5097972;28;20062;-85
2022/01/01 09:24:05;;;;;;;49.78;25.45;;;11.10;99.90;;;;;;5073917;28;20053;-80
2022/01/01 09:26:31;;;;;;;48.63;25.10;;;11.30;99.90;;;;;;5076429;28;20091;-79
2022/01/01 09:28:57;;;;;;;47.70;24.00;;;11.30;99.90;;;;;;5056805;28;20428;-83
2022/01/01 09:31:22;;;;;;;55.03;23.50;;;11.40;99.90;;;;;;5080179;28;20039;-76
2022/01/01 09:33:48;;;;;;;43.45;22.60;;;11.10;99.90;;;;;;5063773;28;20169;-87
2022/01/01 09:36:17;;;;;;;39.63;22.27;;;10.70;99.90;;;;;;5073805;28;20044;-84
2022/01/01 09:38:43;;;;;;;48.03;22.33;;;12.40;99.90;;;;;;5092303;28;20507;-82
2022/01/01 09:41:10;;;;;;;45.10;22.00;;;11.40;99.90;;;;;;5073537;28;20036;-83
2022/01/01 09:43:36;;;;;;;39.05;20.52;;;12.40;99.90;;;;;;5071613;28;20040;-77
2022/01/01 09:46:02;;;;;;;40.65;20.90;;;11.30;99.90;;;;;;5074362;28;20044;-80
2022/01/01 09:48:28;;;;;;;39.28;19.88;;;11.50;99.90;;;;;;5074177;28;20070;-86
2022/01/01 09:51:01;;;;;;;32.42;18.38;;;11.50;99.90;;;;;;5073429;28;20036;-85
2022/01/01 09:53:29;;;;;;;42.20;18.63;;;11.50;99.90;;;;;;5073753;28;20070;-81
2022/01/01 09:55:57;;;;;;;32.53;17.40;;;11.50;99.90;;;;;;5073620;28;20039;-88
2022/01/01 09:58:30;;;;;;;34.17;17.38;;;11.30;99.90;;;;;;5073527;28;20399;-84
2022/01/01 10:00:56;;;;;;;34.38;16.75;;;11.40;99.90;;;;;;5100480;28;20123;-82
2022/01/01 10:03:41;;;;;;;35.20;16.35;;;12.50;99.90;;;;;;5106625;28;20130;-81
2022/01/01 10:06:09;;;;;;;36.03;16.83;;;12.50;99.90;;;;;;5091305;28;20090;-84
2022/01/01 10:08:39;;;;;;;37.35;16.08;;;11.60;99.90;;;;;;5074273;28;20364;-89
2022/01/01 10:11:06;;;;;;;31.63;15.82;;;11.60;99.90;;;;;;5090507;28;20043;-87
2022/01/01 10:13:34;;;;;;;26.58;13.70;;;11.60;99.90;;;;;;5091471;28;20047;-88
2022/01/01 10:16:04;;;;;;;31.52;15.73;;;11.60;99.90;;;;;;5074910;28;20082;-83
2022/01/01 10:18:33;;;;;;;26.08;14.90;;;11.60;99.90;;;;;;5090081;28;20094;-81
2022/01/01 10:21:08;;;;;;;29.48;15.07;;;11.60;99.90;;;;;;5090901;28;20555;-76
2022/01/01 10:23:35;;;;;;;34.08;15.50;;;11.50;99.90;;;;;;5090928;28;20040;-85
2022/01/01 10:29:06;;;;;;;33.30;14.75;;;11.60;99.90;;;;;;5115793;27;20392;-79
2022/01/01 10:31:33;;;;;;;29.77;14.25;;;11.60;99.90;;;;;;5093182;28;20043;-85
2022/01/01 10:33:59;;;;;;;30.08;13.35;;;12.00;99.90;;;;;;5108443;28;20047;-84
2022/01/01 10:36:25;;;;;;;27.52;14.10;;;11.60;99.90;;;;;;5111348;28;20440;-86
2022/01/01 10:38:50;;;;;;;33.08;13.20;;;11.60;99.90;;;;;;5109766;28;20038;-83
2022/01/01 10:41:17;;;;;;;25.08;12.70;;;11.60;99.90;;;;;;5094393;28;20072;-81
2022/01/01 10:43:45;;;;;;;25.48;13.10;;;11.60;99.90;;;;;;5110231;28;20089;-84
2022/01/01 10:46:16;;;;;;;27.40;13.55;;;11.60;99.90;;;;;;5102027;28;20043;-80
2022/01/01 10:48:58;;;;;;;22.98;12.60;;;11.60;99.90;;;;;;5091903;28;20047;-84
2022/01/01 10:51:24;;;;;;;31.55;13.13;;;11.70;99.90;;;;;;5113608;27;20453;-85
2022/01/01 10:54:03;;;;;;;29.33;13.13;;;11.70;99.90;;;;;;5109382;28;20126;-82
2022/01/01 10:56:37;;;;;;;20.35;11.55;;;12.00;99.90;;;;;;5085203;28;20036;-82
2022/01/01 10:59:03;;;;;;;24.60;12.15;;;11.80;99.90;;;;;;5105578;28;20085;-82
2022/01/01 11:01:30;;;;;;;21.77;11.20;;;11.70;99.90;;;;;;5109443;27;20071;-79
2022/01/01 11:03:57;;;;;;;24.00;11.75;;;11.70;99.90;;;;;;5092086;28;20035;-82
2022/01/01 11:06:22;;;;;;;23.85;12.30;;;11.80;99.90;;;;;;5104005;28;20040;-78
2022/01/01 11:08:49;;;;;;;24.35;10.98;;;11.80;99.90;;;;;;5117836;27;20449;-83
2022/01/01 11:11:16;;;;;;;23.15;11.05;;;11.80;99.90;;;;;;5106247;28;20081;-84
2022/01/01 11:13:42;;;;;;;19.90;10.48;;;11.80;99.90;;;;;;5102943;28;20044;-80
2022/01/01 11:16:09;;;;;;;17.77;9.52;;;11.80;99.90;;;;;;5084048;28;20540;-81
2022/01/01 11:18:36;;;;;;;17.80;10.32;;;11.80;99.90;;;;;;5099840;28;20036;-87
2022/01/01 11:21:04;;;;;;;21.80;10.60;;;11.80;99.90;;;;;;5097077;28;20146;-88
2022/01/01 11:23:31;;;;;;;23.65;10.13;;;11.90;99.90;;;;;;5118947;27;20138;-81
2022/01/01 11:25:57;;;;;;;21.83;9.95;;;11.80;99.90;;;;;;5084263;28;20116;-82
2022/01/01 11:28:23;;;;;;;22.40;9.13;;;11.80;99.90;;;;;;5119432;28;20081;-84
2022/01/01 11:30:57;;;;;;;23.70;10.30;;;11.90;99.90;;;;;;5097912;28;20071;-86
2022/01/01 11:33:36;;;;;;;18.98;9.45;;;11.90;99.90;;;;;;5118933;28;20044;-81
2022/01/01 11:36:03;;;;;;;18.42;8.85;;;12.00;99.90;;;;;;5091063;28;20511;-81
2022/01/01 11:38:35;;;;;;;19.45;8.77;;;12.00;99.90;;;;;;5109624;28;20036;-80
2022/01/01 11:41:06;;;;;;;18.23;8.82;;;11.90;99.90;;;;;;5092581;28;20058;-77
2022/01/01 11:43:42;;;;;;;20.42;9.10;;;12.80;99.90;;;;;;5094388;28;20040;-88
2022/01/01 11:46:14;;;;;;;17.83;7.25;;;12.00;99.90;;;;;;5110394;28;20043;-89
2022/01/01 11:48:41;;;;;;;16.65;8.35;;;12.90;99.90;;;;;;5115812;27;20462;-83
2022/01/01 11:51:29;;;;;;;20.63;8.48;;;12.00;99.90;;;;;;5094349;28;20407;-79
2022/01/01 11:54:26;;;;;;;14.20;7.25;;;12.10;99.90;;;;;;5092755;28;20079;-85
2022/01/01 11:56:56;;;;;;;16.98;7.05;;;12.10;99.90;;;;;;5095478;28;20476;-84
2022/01/01 11:59:49;;;;;;;10.88;6.95;;;12.00;99.90;;;;;;5106592;28;20451;-85
2022/01/01 12:02:23;;;;;;;16.10;7.07;;;11.50;99.90;;;;;;5097028;28;20077;-81
2022/01/01 12:04:55;;;;;;;13.35;6.55;;;12.10;99.90;;;;;;5119291;27;20063;-87
2022/01/01 12:07:20;;;;;;;16.85;6.93;;;12.10;99.90;;;;;;5112118;28;20071;-83
2022/01/01 12:10:01;;;;;;;16.08;6.93;;;12.10;99.90;;;;;;5102993;28;20075;-86
2022/01/01 12:12:50;;;;;;;13.73;5.70;;;12.20;99.90;;;;;;5097197;28;20048;-83
2022/01/01 12:15:27;;;;;;;13.75;6.45;;;12.20;99.90;;;;;;4424035;27;10000709;-87
2022/01/01 12:18:05;;;;;;;16.10;6.72;;;12.10;99.90;;;;;;5093562;28;20147;-84
2022/01/01 12:20:32;;;;;;;15.80;6.47;;;11.90;99.90;;;;;;5093763;28;20032;-82
2022/01/01 12:23:01;;;;;;;16.98;6.13;;;12.10;99.90;;;;;;5110782;28;20100;-79
2022/01/01 12:25:31;;;;;;;14.20;6.20;;;12.20;99.90;;;;;;5109874;28;20047;-79
2022/01/01 12:28:01;;;;;;;18.83;6.82;;;12.20;99.90;;;;;;5093912;28;20046;-87
2022/01/01 12:30:34;;;;;;;14.05;5.97;;;12.10;99.90;;;;;;5110426;28;20040;-81
2022/01/01 12:33:00;;;;;;;12.48;5.82;;;12.10;99.90;;;;;;5110289;28;20036;-81
2022/01/01 12:35:52;;;;;;;14.00;6.05;;;12.10;99.90;;;;;;5109993;28;20028;-79